createdAt,value
2019-05-03T00:01:46.520Z,93.30
2019-05-03T00:04:16.432Z,93.40
2019-05-03T00:06:48.996Z,92.80
2019-05-03T00:09:19.846Z,93.50
2019-05-03T00:11:52.773Z,93.60
2019-05-03T00:14:21.810Z,93.20
2019-05-03T00:16:52.530Z,93.10
2019-05-03T00:19:22.140Z,93.40
2019-05-03T00:21:52.587Z,93.20
2019-05-03T00:24:22.676Z,93.10
2019-05-03T00:26:52.426Z,93.20
2019-05-03T00:29:22.237Z,93.50
2019-05-03T00:31:51.826Z,93.60
2019-05-03T00:34:23.027Z,93.30
2019-05-03T00:36:55.463Z,93.30
2019-05-03T00:39:26.710Z,93.50
2019-05-03T00:41:56.321Z,93.50
2019-05-03T00:44:27.799Z,93.40
2019-05-03T00:46:58.569Z,93.60
2019-05-03T00:49:28.182Z,93.60
2019-05-03T00:51:57.923Z,93.20
2019-05-03T00:54:29.229Z,93.60
2019-05-03T00:57:00.199Z,93.80
2019-05-03T00:59:29.820Z,93.80
2019-05-03T01:02:02.649Z,93.80
2019-05-03T01:04:31.921Z,93.90
2019-05-03T01:07:02.299Z,93.60
2019-05-03T01:09:33.424Z,93.80
2019-05-03T01:12:03.079Z,94.10
2019-05-03T01:14:33.385Z,93.80
2019-05-03T01:17:03.113Z,93.90
2019-05-03T01:19:33.323Z,94.10
2019-05-03T01:22:03.046Z,93.60
2019-05-03T01:24:32.726Z,93.80
2019-05-03T01:27:02.365Z,93.80
2019-05-03T01:29:32.364Z,93.80
2019-05-03T01:32:02.427Z,94.20
2019-05-03T01:34:32.703Z,94.30
2019-05-03T01:37:03.497Z,94.30
2019-05-03T01:39:33.168Z,93.80
2019-05-03T01:42:03.863Z,93.60
2019-05-03T01:44:33.442Z,93.90
2019-05-03T01:47:04.756Z,93.70
2019-05-03T01:49:42.572Z,93.70
2019-05-03T01:52:17.692Z,93.40
2019-05-03T01:54:47.277Z,93.70
2019-05-03T01:57:16.988Z,93.90
2019-05-03T01:59:46.721Z,93.50
2019-05-03T02:02:32.376Z,93.90
2019-05-03T02:05:19.420Z,94.00
2019-05-03T02:07:49.131Z,93.50
2019-05-03T02:10:18.840Z,93.40
2019-05-03T02:12:51.924Z,94.00
2019-05-03T02:15:19.767Z,94.00
2019-05-03T02:17:49.375Z,94.20
2019-05-03T02:20:19.114Z,93.60
2019-05-03T02:22:48.723Z,93.90
2019-05-03T02:25:18.402Z,94.00
2019-05-03T02:27:48.011Z,93.80
2019-05-03T02:30:17.752Z,93.80
2019-05-03T02:32:47.353Z,94.00
2019-05-03T02:35:17.039Z,93.90
2019-05-03T02:37:53.154Z,93.90
2019-05-03T02:40:24.653Z,93.80
2019-05-03T02:43:12.896Z,93.60
2019-05-03T02:46:01.866Z,93.80
2019-05-03T02:48:36.209Z,94.00
2019-05-03T02:51:06.615Z,93.90
2019-05-03T02:53:36.127Z,94.10
2019-05-03T02:56:15.158Z,94.40
2019-05-03T02:58:37.298Z,94.30
2019-05-03T03:01:06.986Z,94.00
2019-05-03T03:03:36.686Z,93.80
2019-05-03T03:06:07.039Z,93.90
2019-05-03T03:08:37.182Z,94.10
2019-05-03T03:11:08.233Z,93.40
2019-05-03T03:13:38.930Z,93.60
2019-05-03T03:16:10.307Z,93.80
2019-05-03T03:18:40.610Z,93.40
2019-05-03T03:21:22.598Z,93.80
2019-05-03T03:24:01.677Z,93.70
2019-05-03T03:26:39.269Z,93.80
2019-05-03T03:29:05.610Z,94.00
2019-05-03T03:32:08.956Z,94.00
2019-05-03T03:34:56.972Z,93.80
2019-05-03T03:37:25.814Z,93.90
2019-05-03T03:39:56.042Z,93.80
2019-05-03T03:42:26.126Z,93.80
2019-05-03T03:44:56.304Z,93.50
2019-05-03T03:47:27.335Z,93.20
2019-05-03T03:49:58.419Z,93.50
2019-05-03T03:52:28.149Z,93.20
2019-05-03T03:54:58.985Z,93.50
2019-05-03T03:57:28.667Z,93.60
2019-05-03T03:59:58.405Z,93.30
2019-05-03T04:02:29.069Z,93.50
2019-05-03T04:05:00.438Z,93.50
2019-05-03T04:07:31.237Z,93.60
2019-05-03T04:10:00.799Z,93.40
2019-05-03T04:12:30.542Z,93.70
2019-05-03T04:15:01.791Z,93.60
2019-05-03T04:17:51.473Z,93.60
2019-05-03T04:20:25.408Z,94.10
2019-05-03T04:22:56.133Z,93.60
2019-05-03T04:25:26.236Z,93.70
2019-05-03T04:27:56.288Z,93.50
2019-05-03T04:30:27.060Z,93.70
2019-05-03T04:32:58.435Z,94.10
2019-05-03T04:35:28.140Z,93.80
2019-05-03T04:37:57.747Z,94.10
2019-05-03T04:40:29.174Z,93.90
2019-05-03T04:42:58.776Z,93.90
2019-05-03T04:45:28.383Z,93.90
2019-05-03T04:47:58.123Z,93.80
2019-05-03T04:50:27.731Z,93.70
2019-05-03T04:52:57.444Z,93.40
2019-05-03T04:55:28.441Z,93.50
2019-05-03T04:57:58.163Z,93.70
2019-05-03T05:00:27.902Z,93.50
2019-05-03T05:02:58.479Z,93.80
2019-05-03T05:05:28.142Z,93.90
2019-05-03T05:07:57.851Z,93.90
2019-05-03T05:10:28.538Z,93.90
2019-05-03T05:12:58.278Z,93.90
2019-05-03T05:15:27.980Z,93.50
2019-05-03T05:17:59.254Z,93.10
2019-05-03T05:20:45.467Z,92.80
2019-05-03T05:23:15.334Z,92.80
2019-05-03T05:25:58.488Z,93.00
2019-05-03T05:28:44.879Z,92.90
2019-05-03T05:31:15.154Z,92.90
2019-05-03T05:33:45.027Z,92.50
2019-05-03T05:36:15.267Z,91.90
2019-05-03T05:38:45.212Z,91.80
2019-05-03T05:41:15.637Z,91.60
2019-05-03T05:43:45.505Z,91.30
2019-05-03T05:46:15.524Z,91.70
2019-05-03T05:48:49.843Z,91.90
2019-05-03T05:51:20.575Z,92.30
2019-05-03T05:53:50.260Z,92.60
2019-05-03T05:56:35.345Z,92.90
2019-05-03T05:59:09.445Z,93.20
2019-05-03T06:01:40.687Z,93.60
2019-05-03T06:04:10.423Z,93.50
2019-05-03T06:06:48.880Z,93.70
2019-05-03T06:09:34.350Z,94.10
2019-05-03T06:12:05.362Z,94.00
2019-05-03T06:14:36.581Z,94.00
2019-05-03T06:17:16.864Z,93.50
2019-05-03T06:19:50.747Z,93.80
2019-05-03T06:22:27.548Z,93.90
2019-05-03T06:25:06.430Z,94.40
2019-05-03T06:27:37.414Z,94.60
2019-05-03T06:30:09.683Z,95.10
2019-05-03T06:32:40.203Z,94.80
2019-05-03T06:35:09.823Z,95.20
2019-05-03T06:37:46.141Z,95.00
2019-05-03T06:40:15.897Z,95.00
2019-05-03T06:42:52.438Z,95.10
2019-05-03T06:45:16.854Z,95.00
2019-05-03T06:47:49.893Z,95.20
2019-05-03T06:50:19.449Z,95.50
2019-05-03T06:52:49.130Z,94.90
2019-05-03T06:55:18.867Z,94.60
2019-05-03T06:57:49.794Z,94.50
2019-05-03T07:00:21.435Z,94.40
2019-05-03T07:02:54.481Z,94.40
2019-05-03T07:05:25.593Z,94.10
2019-05-03T07:07:59.604Z,94.10
2019-05-03T07:10:36.867Z,93.90
2019-05-03T07:13:08.902Z,94.00
2019-05-03T07:15:37.928Z,93.30
2019-05-03T07:18:07.557Z,93.50
2019-05-03T07:20:47.406Z,93.70
2019-05-03T07:23:17.116Z,92.90
2019-05-03T07:25:47.822Z,93.00
2019-05-03T07:28:17.562Z,92.80
2019-05-03T07:30:47.271Z,92.40
2019-05-03T07:33:25.435Z,92.70
2019-05-03T07:35:55.392Z,93.00
2019-05-03T07:38:25.104Z,92.50
2019-05-03T07:40:55.032Z,93.50
2019-05-03T07:43:26.621Z,93.50
2019-05-03T07:45:56.284Z,93.60
2019-05-03T07:48:25.992Z,93.90
2019-05-03T07:50:55.598Z,94.10
2019-05-03T07:53:25.420Z,94.20
2019-05-03T07:56:09.049Z,94.20
2019-05-03T07:58:40.231Z,94.10
2019-05-03T08:01:20.656Z,94.10
2019-05-03T08:03:50.366Z,94.10
2019-05-03T08:06:20.078Z,93.80
2019-05-03T08:08:51.477Z,94.20
2019-05-03T08:11:22.157Z,93.80
2019-05-03T08:13:51.868Z,94.30
2019-05-03T08:16:21.582Z,93.00
2019-05-03T08:18:53.053Z,93.20
2019-05-03T08:21:25.038Z,93.10
2019-05-03T08:23:55.696Z,93.00
2019-05-03T08:26:25.891Z,92.50
2019-05-03T08:28:55.669Z,92.40
2019-05-03T08:31:32.643Z,91.50
2019-05-03T08:34:15.156Z,91.40
2019-05-03T08:36:57.939Z,91.40
2019-05-03T08:39:27.583Z,91.90
2019-05-03T08:42:01.559Z,91.80
2019-05-03T08:44:31.301Z,92.10
2019-05-03T08:47:01.005Z,92.50
2019-05-03T08:49:30.716Z,92.50
2019-05-03T08:52:00.399Z,91.10
2019-05-03T08:54:30.032Z,91.30
2019-05-03T08:56:59.743Z,91.90
2019-05-03T08:59:32.572Z,91.70
2019-05-03T09:02:03.670Z,91.10
2019-05-03T09:05:18.146Z,90.30
2019-05-03T09:07:05.382Z,90.60
2019-05-03T09:09:36.383Z,91.50
2019-05-03T09:12:07.878Z,90.20
2019-05-03T09:14:42.474Z,90.80
2019-05-03T09:17:08.636Z,90.30
2019-05-03T09:19:38.394Z,90.10
2019-05-03T09:22:08.135Z,89.30
2019-05-03T09:24:37.869Z,86.90
2019-05-03T09:27:07.580Z,86.50
2019-05-03T09:29:43.222Z,89.70
2019-05-03T09:32:08.507Z,88.00
2019-05-03T09:34:38.143Z,86.30
2019-05-03T09:37:07.830Z,89.40
2019-05-03T09:39:37.468Z,90.70
2019-05-03T09:42:07.143Z,89.40
2019-05-03T09:44:36.783Z,89.70
2019-05-03T09:47:06.458Z,88.30
2019-05-03T09:49:37.166Z,91.00
2019-05-03T09:52:08.465Z,91.50
2019-05-03T09:54:39.818Z,91.40
2019-05-03T09:57:09.499Z,92.10
2019-05-03T09:59:39.136Z,92.60
2019-05-03T10:02:08.846Z,92.90
2019-05-03T10:04:38.458Z,93.20
2019-05-03T10:07:08.068Z,93.80
2019-05-03T10:09:39.520Z,94.30
2019-05-03T10:12:10.861Z,94.60
2019-05-03T10:14:40.442Z,94.50
2019-05-03T10:17:20.828Z,94.60
2019-05-03T10:19:50.543Z,94.40
2019-05-03T10:22:25.219Z,94.70
2019-05-03T10:24:55.408Z,94.70
2019-05-03T10:27:25.219Z,94.80
2019-05-03T10:30:09.117Z,94.80
2019-05-03T10:32:28.005Z,94.80
2019-05-03T10:35:01.680Z,93.70
2019-05-03T10:37:35.525Z,93.60
2019-05-03T10:40:07.988Z,94.00
2019-05-03T10:42:35.646Z,94.00
2019-05-03T10:45:06.890Z,93.00
2019-05-03T10:47:38.034Z,93.10
2019-05-03T10:50:07.743Z,93.40
2019-05-03T10:52:38.992Z,93.20
2019-05-03T10:55:08.774Z,92.80
2019-05-03T10:57:40.049Z,93.20
2019-05-03T11:00:39.342Z,92.90
2019-05-03T11:02:45.285Z,92.20
2019-05-03T11:05:15.022Z,93.50
2019-05-03T11:07:45.106Z,92.90
2019-05-03T11:10:15.538Z,92.30
2019-05-03T11:12:45.272Z,91.30
2019-05-03T11:15:15.068Z,92.00
2019-05-03T11:17:45.574Z,91.20
2019-05-03T11:20:28.435Z,91.40
2019-05-03T11:22:54.701Z,92.00
2019-05-03T11:25:21.895Z,92.60
2019-05-03T11:27:54.909Z,91.30
2019-05-03T11:30:24.667Z,89.70
2019-05-03T11:32:57.031Z,88.20
2019-05-03T11:35:44.771Z,84.70
2019-05-03T11:38:15.962Z,86.60
2019-05-03T11:40:45.642Z,84.70
2019-05-03T11:43:16.098Z,85.20
2019-05-03T11:45:45.780Z,85.60
2019-05-03T11:48:15.518Z,82.80
2019-05-03T11:50:45.428Z,86.20
2019-05-03T11:53:15.244Z,87.50
2019-05-03T11:55:46.438Z,87.50
2019-05-03T11:58:20.580Z,89.90
2019-05-03T12:00:51.987Z,86.40
2019-05-03T12:03:25.014Z,88.40
2019-05-03T12:05:58.149Z,90.40
2019-05-03T12:08:27.816Z,90.30
2019-05-03T12:11:01.317Z,91.10
2019-05-03T12:13:31.952Z,91.20
2019-05-03T12:16:02.220Z,91.50
2019-05-03T12:18:47.704Z,92.50
2019-05-03T12:21:06.948Z,91.70
2019-05-03T12:23:36.740Z,91.80
2019-05-03T12:26:09.829Z,91.00
2019-05-03T12:28:37.582Z,91.00
2019-05-03T12:31:07.316Z,91.20
2019-05-03T12:33:37.000Z,91.20
2019-05-03T12:36:06.774Z,91.10
2019-05-03T12:38:36.651Z,92.40
2019-05-03T12:41:06.359Z,92.60
2019-05-03T12:43:35.972Z,92.90
2019-05-03T12:46:05.680Z,92.00
2019-05-03T12:48:37.241Z,91.90
2019-05-03T12:51:08.536Z,91.60
2019-05-03T12:53:38.471Z,92.80
2019-05-03T12:56:12.721Z,92.00
2019-05-03T12:58:57.399Z,92.40
2019-05-03T13:01:40.913Z,92.30
2019-05-03T13:04:05.862Z,92.90
2019-05-03T13:06:37.357Z,92.60
2019-05-03T13:09:07.579Z,92.40
2019-05-03T13:11:52.005Z,92.60
2019-05-03T13:14:10.276Z,91.90
2019-05-03T13:16:39.959Z,91.50
2019-05-03T13:19:09.708Z,90.50
2019-05-03T13:21:39.405Z,90.00
2019-05-03T13:24:16.328Z,89.00
2019-05-03T13:26:42.194Z,87.40
2019-05-03T13:29:11.995Z,87.50
2019-05-03T13:31:54.466Z,89.90
2019-05-03T13:34:13.076Z,86.10
2019-05-03T13:36:42.787Z,86.60
2019-05-03T13:39:14.595Z,84.80
2019-05-03T13:41:45.528Z,83.30
2019-05-03T13:44:15.732Z,82.50
2019-05-03T13:46:45.695Z,80.40
2019-05-03T13:49:15.918Z,80.10
2019-05-03T13:51:45.749Z,83.40
2019-05-03T13:54:15.467Z,80.20
2019-05-03T13:56:46.202Z,76.40
2019-05-03T13:59:19.941Z,77.40
2019-05-03T14:01:47.157Z,79.30
2019-05-03T14:04:18.574Z,74.10
2019-05-03T14:06:48.215Z,78.10
2019-05-03T14:09:17.900Z,78.90
2019-05-03T14:11:47.635Z,82.10
2019-05-03T14:14:17.346Z,81.90
2019-05-03T14:16:47.057Z,80.90
2019-05-03T14:19:21.075Z,79.70
2019-05-03T14:21:54.495Z,80.60
2019-05-03T14:24:24.567Z,83.40
2019-05-03T14:26:55.527Z,81.90
2019-05-03T14:29:25.344Z,78.70
2019-05-03T14:31:55.249Z,82.10
2019-05-03T14:34:25.660Z,82.20
2019-05-03T14:36:55.679Z,82.20
2019-05-03T14:39:25.495Z,83.30
2019-05-03T14:41:55.656Z,82.30
2019-05-03T14:44:25.465Z,81.70
2019-05-03T14:46:59.276Z,84.10
2019-05-03T14:49:27.523Z,83.80
2019-05-03T14:51:57.591Z,82.20
2019-05-03T14:54:30.575Z,82.00
2019-05-03T14:57:20.101Z,83.50
2019-05-03T15:00:09.165Z,83.30
2019-05-03T15:02:47.636Z,84.20
2019-05-03T15:05:16.656Z,84.00
2019-05-03T15:07:47.051Z,85.60
2019-05-03T15:10:16.814Z,84.60
2019-05-03T15:12:47.494Z,85.30
2019-05-03T15:15:18.997Z,86.00
2019-05-03T15:17:48.914Z,84.10
2019-05-03T15:20:18.739Z,85.20
2019-05-03T15:22:48.489Z,87.00
2019-05-03T15:25:18.543Z,87.80
2019-05-03T15:27:48.608Z,87.60
2019-05-03T15:30:18.414Z,87.70
2019-05-03T15:32:59.518Z,88.60
2019-05-03T15:35:19.780Z,86.70
2019-05-03T15:37:49.515Z,86.90
2019-05-03T15:40:19.224Z,86.30
2019-05-03T15:42:50.443Z,86.60
2019-05-03T15:45:51.925Z,87.20
2019-05-03T15:48:24.572Z,87.50
2019-05-03T15:50:55.409Z,84.80
2019-05-03T15:53:25.357Z,88.10
2019-05-03T15:55:55.211Z,87.70
2019-05-03T15:58:25.084Z,86.60
2019-05-03T16:00:55.397Z,86.90
2019-05-03T16:03:25.470Z,87.00
2019-05-03T16:05:55.654Z,86.60
2019-05-03T16:08:25.536Z,84.70
2019-05-03T16:10:55.273Z,85.80
2019-05-03T16:13:25.350Z,86.80
2019-05-03T16:15:55.424Z,85.90
2019-05-03T16:18:25.327Z,86.00
2019-05-03T16:20:55.007Z,86.90
2019-05-03T16:23:24.982Z,86.70
2019-05-03T16:25:54.966Z,87.90
2019-05-03T16:28:26.187Z,86.60
2019-05-03T16:30:57.435Z,86.80
2019-05-03T16:33:28.287Z,88.80
2019-05-03T16:35:58.195Z,89.30
2019-05-03T16:38:27.920Z,89.20
2019-05-03T16:40:57.602Z,87.50
2019-05-03T16:43:27.424Z,87.50
2019-05-03T16:45:57.152Z,85.50
2019-05-03T16:48:28.664Z,86.40
2019-05-03T16:50:58.315Z,88.10
2019-05-03T16:53:28.129Z,88.00
2019-05-03T16:55:58.774Z,88.70
2019-05-03T16:58:28.360Z,88.40
2019-05-03T17:00:58.078Z,87.90
2019-05-03T17:03:38.548Z,89.10
2019-05-03T17:06:05.587Z,88.90
2019-05-03T17:08:41.337Z,90.10
2019-05-03T17:11:24.746Z,89.70
2019-05-03T17:13:55.389Z,90.30
2019-05-03T17:16:27.841Z,89.80
2019-05-03T17:18:58.610Z,89.90
2019-05-03T17:21:30.026Z,89.70
2019-05-03T17:23:59.642Z,90.10
2019-05-03T17:26:29.379Z,90.00
2019-05-03T17:29:00.063Z,88.90
2019-05-03T17:31:29.824Z,88.50
2019-05-03T17:34:00.430Z,88.00
2019-05-03T17:36:31.122Z,88.90
2019-05-03T17:41:57.161Z,90.20
2019-05-03T17:44:29.781Z,89.40
2019-05-03T17:46:59.521Z,89.80
2019-05-03T17:49:29.231Z,89.70
2019-05-03T17:52:04.812Z,89.00
2019-05-03T17:54:38.993Z,90.50
2019-05-03T17:57:10.212Z,89.70
2019-05-03T17:59:58.928Z,90.30
2019-05-03T18:02:33.186Z,89.60
2019-05-03T18:05:05.257Z,90.40
2019-05-03T18:07:38.974Z,90.30
2019-05-03T18:10:10.334Z,90.40
2019-05-03T18:12:40.038Z,90.20
2019-05-03T18:15:10.824Z,90.70
2019-05-03T18:17:40.585Z,90.70
2019-05-03T18:20:10.295Z,90.90
2019-05-03T18:22:41.337Z,91.00
2019-05-03T18:25:10.944Z,90.90
2019-05-03T18:27:40.731Z,90.10
2019-05-03T18:30:10.468Z,90.40
2019-05-03T18:32:40.150Z,91.00
2019-05-03T18:35:09.889Z,91.10
2019-05-03T18:37:39.599Z,90.40
2019-05-03T18:40:10.975Z,90.80
2019-05-03T18:42:44.752Z,90.30
2019-05-03T18:45:31.358Z,90.00
2019-05-03T18:48:01.068Z,90.20
2019-05-03T18:50:30.780Z,89.70
2019-05-03T18:53:02.226Z,90.00
2019-05-03T18:55:32.041Z,88.90
2019-05-03T18:58:04.310Z,89.00
2019-05-03T19:00:35.129Z,88.20
2019-05-03T19:03:05.064Z,90.10
2019-05-03T19:05:36.283Z,90.20
2019-05-03T19:08:19.537Z,90.20
2019-05-03T19:10:56.414Z,90.30
2019-05-03T19:13:27.636Z,90.20
2019-05-03T19:15:57.881Z,90.50
2019-05-03T19:18:35.100Z,90.50
2019-05-03T19:21:04.660Z,90.00
2019-05-03T19:23:35.612Z,90.20
2019-05-03T19:26:06.449Z,90.10
2019-05-03T19:28:37.959Z,90.20
2019-05-03T19:31:07.715Z,89.70
2019-05-03T19:33:38.398Z,89.70
2019-05-03T19:36:08.158Z,90.00
2019-05-03T19:38:37.977Z,90.10
2019-05-03T19:41:08.705Z,89.80
2019-05-03T19:43:38.415Z,89.80
2019-05-03T19:46:08.099Z,90.10
2019-05-03T19:48:37.835Z,89.70
2019-05-03T19:51:07.547Z,90.00
2019-05-03T19:53:41.658Z,89.70
2019-05-03T19:56:11.369Z,89.90
2019-05-03T19:58:41.078Z,88.90
2019-05-03T20:01:17.247Z,88.70
2019-05-03T20:03:48.487Z,89.20
2019-05-03T20:06:25.672Z,89.20
2019-05-03T20:09:08.899Z,89.40
2019-05-03T20:11:38.612Z,88.80
2019-05-03T20:14:08.321Z,88.10
2019-05-03T20:16:39.745Z,88.40
2019-05-03T20:19:18.961Z,88.50
2019-05-03T20:21:40.726Z,87.80
2019-05-03T20:24:10.436Z,87.50
2019-05-03T20:26:44.955Z,86.90
2019-05-03T20:29:12.417Z,85.50
2019-05-03T20:31:42.126Z,86.50
2019-05-03T20:34:11.837Z,86.00
2019-05-03T20:36:41.547Z,86.70
2019-05-03T20:39:12.251Z,86.40
2019-05-03T20:41:41.991Z,85.60
2019-05-03T20:44:19.047Z,86.40
2019-05-03T20:46:50.422Z,87.60
2019-05-03T20:49:20.132Z,87.20
2019-05-03T20:51:51.368Z,86.40
2019-05-03T20:54:21.268Z,86.70
2019-05-03T20:56:51.003Z,86.90
2019-05-03T20:59:20.713Z,86.70
2019-05-03T21:01:50.398Z,85.30
2019-05-03T21:04:20.134Z,85.20
2019-05-03T21:06:51.640Z,85.30
2019-05-03T21:09:21.062Z,84.90
2019-05-03T21:11:50.801Z,86.00
2019-05-03T21:14:20.510Z,84.90
2019-05-03T21:17:02.005Z,85.30
2019-05-03T21:19:37.323Z,85.60
2019-05-03T21:22:08.559Z,85.40
2019-05-03T21:24:52.093Z,84.00
2019-05-03T21:27:21.801Z,81.90
2019-05-03T21:29:55.101Z,79.60
2019-05-03T21:32:25.341Z,80.80
2019-05-03T21:34:56.146Z,82.70
2019-05-03T21:37:27.589Z,84.40
2019-05-03T21:39:58.809Z,85.40
2019-05-03T21:42:28.438Z,87.00
2019-05-03T21:44:58.147Z,87.80
2019-05-03T21:47:47.542Z,88.60
2019-05-03T21:50:18.687Z,89.00
2019-05-03T21:52:48.370Z,86.90
2019-05-03T21:55:18.079Z,87.50
2019-05-03T21:57:47.816Z,89.10
2019-05-03T22:00:17.919Z,90.30
2019-05-03T22:02:49.386Z,90.90
2019-05-03T22:05:19.085Z,90.80
2019-05-03T22:07:48.782Z,90.70
2019-05-03T22:10:20.325Z,90.70
2019-05-03T22:12:50.049Z,90.80
2019-05-03T22:15:36.654Z,90.90
2019-05-03T22:18:18.986Z,91.00
2019-05-03T22:20:56.167Z,90.90
2019-05-03T22:23:45.538Z,90.50
2019-05-03T22:26:17.024Z,90.50
2019-05-03T22:28:46.804Z,90.80
2019-05-03T22:31:18.214Z,91.00
2019-05-03T22:33:47.940Z,90.70
2019-05-03T22:36:19.377Z,90.60
2019-05-03T22:38:49.133Z,91.00
2019-05-03T22:41:20.267Z,90.80
2019-05-03T22:43:49.977Z,90.90
2019-05-03T22:46:19.688Z,90.90
2019-05-03T22:48:51.153Z,91.10
2019-05-03T22:51:20.849Z,90.90
2019-05-03T22:53:50.530Z,90.90
2019-05-03T22:56:20.269Z,91.00
2019-05-03T22:58:49.877Z,91.10
2019-05-03T23:01:20.584Z,91.10
2019-05-03T23:03:50.320Z,91.20
2019-05-03T23:06:22.636Z,91.20
2019-05-03T23:08:51.281Z,91.20
2019-05-03T23:11:20.959Z,90.80
2019-05-03T23:13:55.075Z,91.00
2019-05-03T23:16:24.822Z,91.10
2019-05-03T23:18:54.771Z,90.90
2019-05-03T23:21:26.176Z,91.10
2019-05-03T23:23:55.859Z,91.00
2019-05-03T23:26:25.602Z,90.90
2019-05-03T23:28:55.306Z,91.00
2019-05-03T23:31:25.234Z,91.20
2019-05-03T23:33:55.136Z,91.00
2019-05-03T23:36:33.299Z,91.00
2019-05-03T23:38:56.194Z,91.10
2019-05-03T23:41:27.706Z,91.10
2019-05-03T23:43:58.445Z,91.10
2019-05-03T23:46:29.728Z,91.10
2019-05-03T23:48:59.411Z,91.10
2019-05-03T23:51:45.842Z,91.30
2019-05-03T23:54:15.522Z,91.40
2019-05-03T23:56:45.825Z,91.70
2019-05-03T23:59:18.668Z,91.40
